RYR812 EIDW-EGPH

Flight info

Callsign RYR812
Flight time 0h 42m
Altitude 23000
Route ROTEV3J ROTEV P600 TUNSO
Aircraft B38M/M-SADE3FGILRWY/SB1

Departure

Time 2026-04-23 09:06
Airport Dublin Airport (EIDW)

Arrival

Time 2026-04-23 09:49
Airport Edinburgh Airport (EGPH)
Time Latitude Longitude Altitude Speed Heading
2026-04-23 08:36 53.43109 -6.24959 213 ft 0 kts 185°
2026-04-23 08:57 53.43130 -6.24956 213 ft 4 kts 185°
2026-04-23 08:57 53.43157 -6.24952 213 ft 4 kts 185°
2026-04-23 08:57 53.43178 -6.24948 213 ft 4 kts 197°
2026-04-23 08:57 53.43192 -6.24924 213 ft 4 kts 264°
2026-04-23 08:58 53.43191 -6.24882 213 ft 4 kts 275°
2026-04-23 08:58 53.43190 -6.24870 213 ft 1 kts 275°
2026-04-23 09:00 53.43190 -6.24871 213 ft 1 kts 275°
2026-04-23 09:00 53.43191 -6.24896 213 ft 3 kts 275°
2026-04-23 09:00 53.43194 -6.24951 213 ft 6 kts 275°
2026-04-23 09:01 53.43199 -6.25036 213 ft 9 kts 275°
2026-04-23 09:01 53.43205 -6.25149 213 ft 11 kts 275°
2026-04-23 09:01 53.43207 -6.25285 213 ft 13 kts 260°
2026-04-23 09:01 53.43184 -6.25402 218 ft 11 kts 254°
2026-04-23 09:02 53.43207 -6.25529 217 ft 13 kts 315°
2026-04-23 09:02 53.43292 -6.25603 213 ft 15 kts 337°
2026-04-23 09:02 53.43383 -6.25703 215 ft 17 kts 290°
2026-04-23 09:02 53.43352 -6.25899 215 ft 19 kts 246°
2026-04-23 09:03 53.43301 -6.26110 221 ft 20 kts 260°
2026-04-23 09:03 53.43375 -6.26280 218 ft 18 kts 321°
2026-04-23 09:03 53.43455 -6.26446 215 ft 20 kts 281°
2026-04-23 09:03 53.43468 -6.26685 213 ft 22 kts 275°
2026-04-23 09:04 53.43480 -6.26949 213 ft 24 kts 274°
2026-04-23 09:04 53.43495 -6.27221 213 ft 24 kts 277°
2026-04-23 09:04 53.43514 -6.27507 213 ft 24 kts 277°
2026-04-23 09:04 53.43530 -6.27795 221 ft 25 kts 275°
2026-04-23 09:05 53.43547 -6.28098 213 ft 27 kts 275°
2026-04-23 09:05 53.43561 -6.28353 221 ft 17 kts 275°
2026-04-23 09:05 53.43634 -6.28479 218 ft 18 kts
2026-04-23 09:05 53.43732 -6.28406 214 ft 16 kts 76°
2026-04-23 09:06 53.43723 -6.28191 213 ft 32 kts 95°
2026-04-23 09:06 53.43674 -6.27281 221 ft 122 kts 95°
2026-04-23 09:06 53.43573 -6.25524 548 ft 164 kts 94°
2026-04-23 09:06 53.43492 -6.23664 1640 ft 163 kts 95°
2026-04-23 09:07 53.43433 -6.21762 2470 ft 171 kts 81°
2026-04-23 09:07 53.43967 -6.19891 2848 ft 192 kts 51°
2026-04-23 09:07 53.45172 -6.18681 3007 ft 217 kts 19°
2026-04-23 09:07 53.46677 -6.17951 3051 ft 232 kts 26°
2026-04-23 09:08 53.48187 -6.16847 3113 ft 241 kts 28°
2026-04-23 09:08 53.49743 -6.15711 3186 ft 248 kts 27°
2026-04-23 09:08 53.51382 -6.14538 3246 ft 261 kts 26°
2026-04-23 09:08 53.53074 -6.13350 3346 ft 266 kts 26°
2026-04-23 09:09 53.54834 -6.12284 3555 ft 273 kts 14°
2026-04-23 09:09 53.56739 -6.12062 4607 ft 273 kts
2026-04-23 09:09 53.58649 -6.11893 5742 ft 278 kts
2026-04-23 09:09 53.60601 -6.11692 6790 ft 282 kts
2026-04-23 09:10 53.62576 -6.11476 7818 ft 287 kts
2026-04-23 09:10 53.66675 -6.10995 9625 ft 302 kts
2026-04-23 09:10 53.68782 -6.10743 10568 ft 305 kts
2026-04-23 09:11 53.70949 -6.10483 11229 ft 321 kts
2026-04-23 09:11 53.73251 -6.10206 11677 ft 341 kts
2026-04-23 09:11 53.75669 -6.09914 12249 ft 355 kts
2026-04-23 09:11 53.78148 -6.09614 13040 ft 358 kts
2026-04-23 09:12 53.80650 -6.09312 13830 ft 363 kts
2026-04-23 09:12 53.83187 -6.09006 14578 ft 367 kts
2026-04-23 09:12 53.85749 -6.08697 15323 ft 371 kts
2026-04-23 09:12 53.88329 -6.08385 16052 ft 374 kts
2026-04-23 09:13 53.90939 -6.08070 16737 ft 378 kts
2026-04-23 09:13 53.93576 -6.07750 17388 ft 382 kts
2026-04-23 09:13 53.96235 -6.07429 18037 ft 385 kts
2026-04-23 09:13 53.98915 -6.07103 18645 ft 388 kts
2026-04-23 09:14 54.01619 -6.06736 19227 ft 392 kts
2026-04-23 09:14 54.04221 -6.05382 19823 ft 393 kts 25°
2026-04-23 09:14 54.06707 -6.03414 20350 ft 397 kts 25°
2026-04-23 09:14 54.09226 -6.01408 20898 ft 401 kts 26°
2026-04-23 09:15 54.11755 -5.99363 21459 ft 404 kts 26°
2026-04-23 09:15 54.14297 -5.97289 22020 ft 406 kts 26°
2026-04-23 09:15 54.16858 -5.95192 22568 ft 409 kts 26°
2026-04-23 09:15 54.19432 -5.93079 23081 ft 413 kts 26°
2026-04-23 09:16 54.22040 -5.90935 23377 ft 418 kts 26°
2026-04-23 09:16 54.24561 -5.88858 23458 ft 427 kts 26°
2026-04-23 09:16 54.27215 -5.86670 23455 ft 437 kts 26°
2026-04-23 09:16 54.29970 -5.84395 23453 ft 441 kts 26°
2026-04-23 09:17 54.32736 -5.82106 23470 ft 442 kts 26°
2026-04-23 09:17 54.35501 -5.79817 23474 ft 442 kts 26°
2026-04-23 09:17 54.38231 -5.77553 23475 ft 442 kts 26°
2026-04-23 09:17 54.40995 -5.75253 23479 ft 442 kts 26°
2026-04-23 09:18 54.43802 -5.72915 23476 ft 442 kts 26°
2026-04-23 09:18 54.46530 -5.70643 23477 ft 442 kts 26°
2026-04-23 09:18 54.49295 -5.68335 23475 ft 442 kts 26°
2026-04-23 09:18 54.52094 -5.65996 23478 ft 442 kts 26°
2026-04-23 09:19 54.54863 -5.63680 23484 ft 442 kts 26°
2026-04-23 09:19 54.57627 -5.61363 23489 ft 442 kts 26°
2026-04-23 09:19 54.60190 -5.58619 23463 ft 440 kts 40°
2026-04-23 09:19 54.62541 -5.55106 23508 ft 441 kts 41°
2026-04-23 09:20 54.64835 -5.51696 23487 ft 441 kts 41°
2026-04-23 09:20 54.67182 -5.48169 23478 ft 441 kts 41°
2026-04-23 09:20 54.69489 -5.44674 23484 ft 441 kts 41°
2026-04-23 09:20 54.71768 -5.41209 23487 ft 442 kts 42°
2026-04-23 09:21 54.74073 -5.37700 23487 ft 442 kts 42°
2026-04-23 09:21 54.76377 -5.34190 23484 ft 442 kts 42°
2026-04-23 09:21 54.78642 -5.30734 23507 ft 424 kts 42°
2026-04-23 09:21 54.80821 -5.27404 23238 ft 414 kts 42°
2026-04-23 09:22 54.82981 -5.24098 22696 ft 413 kts 42°
2026-04-23 09:22 54.85129 -5.20806 22175 ft 411 kts 42°
2026-04-23 09:22 54.87264 -5.17535 21667 ft 408 kts 41°
2026-04-23 09:22 54.89614 -5.14803 21055 ft 408 kts 26°
2026-04-23 09:23 54.92149 -5.12628 20652 ft 404 kts 27°
2026-04-23 09:23 54.94650 -5.10446 20178 ft 401 kts 26°
2026-04-23 09:23 54.97138 -5.08285 19676 ft 399 kts 26°
2026-04-23 09:23 54.99614 -5.06138 19205 ft 396 kts 26°
2026-04-23 09:24 55.02076 -5.04002 18737 ft 394 kts 26°
2026-04-23 09:24 55.04521 -5.01877 18275 ft 392 kts 26°
2026-04-23 09:24 55.06956 -4.99760 17824 ft 389 kts 26°
2026-04-23 09:24 55.09315 -4.97498 17438 ft 385 kts 36°
2026-04-23 09:25 55.11173 -4.94238 17226 ft 378 kts 56°
2026-04-23 09:25 55.12437 -4.90211 17047 ft 379 kts 65°
2026-04-23 09:25 55.13555 -4.86035 16824 ft 378 kts 66°
2026-04-23 09:25 55.14639 -4.81847 16601 ft 377 kts 67°
2026-04-23 09:26 55.15699 -4.77672 16393 ft 375 kts 67°
2026-04-23 09:26 55.16748 -4.73487 16175 ft 374 kts 67°
2026-04-23 09:26 55.17783 -4.69319 15955 ft 373 kts 67°
2026-04-23 09:26 55.18810 -4.65166 15742 ft 372 kts 68°
2026-04-23 09:27 55.19833 -4.61014 15529 ft 371 kts 68°
2026-04-23 09:27 55.20848 -4.56891 15335 ft 370 kts 68°
2026-04-23 09:27 55.21861 -4.52762 15131 ft 368 kts 68°
2026-04-23 09:27 55.22871 -4.48644 14937 ft 367 kts 68°
2026-04-23 09:28 55.23875 -4.44538 14729 ft 366 kts 68°
2026-04-23 09:28 55.24874 -4.40449 14508 ft 365 kts 68°
2026-04-23 09:28 55.25854 -4.36424 14312 ft 363 kts 68°
2026-04-23 09:28 55.26842 -4.32363 14106 ft 362 kts 68°
2026-04-23 09:29 55.27838 -4.28253 13901 ft 361 kts 68°
2026-04-23 09:29 55.28820 -4.24207 13700 ft 359 kts 68°
2026-04-23 09:29 55.29781 -4.20235 13532 ft 358 kts 68°
2026-04-23 09:29 55.30752 -4.16214 13293 ft 357 kts 68°
2026-04-23 09:30 55.31718 -4.12209 13083 ft 356 kts 68°
2026-04-23 09:30 55.32677 -4.08220 12879 ft 354 kts 68°
2026-04-23 09:30 55.33634 -4.04232 12669 ft 353 kts 68°
2026-04-23 09:30 55.34581 -4.00281 12488 ft 352 kts 68°
2026-04-23 09:31 55.35526 -3.96333 12289 ft 346 kts 68°
2026-04-23 09:31 55.36444 -3.92491 12092 ft 338 kts 68°
2026-04-23 09:31 55.37340 -3.88729 11905 ft 329 kts 68°
2026-04-23 09:31 55.38214 -3.85057 11701 ft 321 kts 68°
2026-04-23 09:32 55.39065 -3.81475 11535 ft 313 kts 68°
2026-04-23 09:32 55.39893 -3.77983 11355 ft 305 kts 68°
2026-04-23 09:32 55.40699 -3.74580 11187 ft 298 kts 69°
2026-04-23 09:32 55.41483 -3.71264 11031 ft 289 kts 69°
2026-04-23 09:33 55.42246 -3.68033 10872 ft 283 kts 69°
2026-04-23 09:33 55.42999 -3.64834 10714 ft 284 kts 69°
2026-04-23 09:33 55.43757 -3.61616 10550 ft 283 kts 69°
2026-04-23 09:33 55.44508 -3.58417 10394 ft 283 kts 69°
2026-04-23 09:34 55.45257 -3.55224 10213 ft 281 kts 69°
2026-04-23 09:34 55.46003 -3.52041 10071 ft 282 kts 69°
2026-04-23 09:34 55.46748 -3.48858 9901 ft 280 kts 69°
2026-04-23 09:34 55.47489 -3.45692 9744 ft 279 kts 69°
2026-04-23 09:35 55.48228 -3.42529 9581 ft 279 kts 69°
2026-04-23 09:35 55.48965 -3.39367 9430 ft 278 kts 69°
2026-04-23 09:35 55.49813 -3.36315 9233 ft 279 kts 54°
2026-04-23 09:35 55.51265 -3.34097 9046 ft 278 kts 30°
2026-04-23 09:36 55.52955 -3.32405 8932 ft 280 kts 31°
2026-04-23 09:36 55.54650 -3.30701 8772 ft 280 kts 31°
2026-04-23 09:36 55.56343 -3.29016 8612 ft 279 kts 30°
2026-04-23 09:36 55.58035 -3.27343 8451 ft 278 kts 31°
2026-04-23 09:37 55.59724 -3.25680 8292 ft 277 kts 30°
2026-04-23 09:37 55.61400 -3.24028 8150 ft 275 kts 30°
2026-04-23 09:37 55.63076 -3.22379 7988 ft 275 kts 30°
2026-04-23 09:37 55.64747 -3.20735 7829 ft 275 kts 30°
2026-04-23 09:38 55.66401 -3.19108 7698 ft 269 kts 30°
2026-04-23 09:38 55.68061 -3.17661 7556 ft 264 kts 17°
2026-04-23 09:38 55.69863 -3.17482 7399 ft 260 kts 347°
2026-04-23 09:38 55.71483 -3.18796 7281 ft 258 kts 320°
2026-04-23 09:39 55.72619 -3.21233 7176 ft 258 kts 294°
2026-04-23 09:39 55.73224 -3.24175 6997 ft 259 kts 285°
2026-04-23 09:39 55.73761 -3.27245 6664 ft 262 kts 285°
2026-04-23 09:39 55.74282 -3.30344 6355 ft 261 kts 284°
2026-04-23 09:40 55.74787 -3.33413 6181 ft 257 kts 284°
2026-04-23 09:40 55.75274 -3.36430 6035 ft 253 kts 284°
2026-04-23 09:40 55.75754 -3.39442 5902 ft 254 kts 284°
2026-04-23 09:40 55.76229 -3.42445 5797 ft 249 kts 284°
2026-04-23 09:41 55.76685 -3.45356 5670 ft 241 kts 284°
2026-04-23 09:41 55.77127 -3.48181 5560 ft 233 kts 283°
2026-04-23 09:41 55.77549 -3.50894 5448 ft 224 kts 283°
2026-04-23 09:41 55.77956 -3.53503 5352 ft 215 kts 283°
2026-04-23 09:42 55.78346 -3.56004 5248 ft 206 kts 283°
2026-04-23 09:42 55.78727 -3.58469 5172 ft 208 kts 283°
2026-04-23 09:42 55.79110 -3.60940 5083 ft 207 kts 283°
2026-04-23 09:42 55.79493 -3.63411 4991 ft 207 kts 283°
2026-04-23 09:43 55.79875 -3.65879 4915 ft 207 kts 283°
2026-04-23 09:43 55.80462 -3.68187 4683 ft 208 kts 310°
2026-04-23 09:43 55.81627 -3.69695 4381 ft 208 kts 338°
2026-04-23 09:43 55.83036 -3.70008 4082 ft 205 kts 12°
2026-04-23 09:44 55.84259 -3.68947 3917 ft 192 kts 46°
2026-04-23 09:44 55.84977 -3.67017 3696 ft 185 kts 65°
2026-04-23 09:44 55.85382 -3.65681 3540 ft 184 kts 63°
2026-04-23 09:44 55.86216 -3.63132 3234 ft 174 kts 62°
2026-04-23 09:45 55.86630 -3.61896 3063 ft 170 kts 61°
2026-04-23 09:45 55.87220 -3.60146 2848 ft 164 kts 62°
2026-04-23 09:45 55.87805 -3.58426 2648 ft 160 kts 61°
2026-04-23 09:45 55.88369 -3.56771 2432 ft 151 kts 61°
2026-04-23 09:46 55.88907 -3.55196 2247 ft 147 kts 60°
2026-04-23 09:46 55.89424 -3.53675 2048 ft 141 kts 61°
2026-04-23 09:46 55.89925 -3.52202 1845 ft 136 kts 60°
2026-04-23 09:46 55.90409 -3.50771 1667 ft 134 kts 59°
2026-04-23 09:47 55.90888 -3.49356 1499 ft 133 kts 58°
2026-04-23 09:47 55.91369 -3.47945 1328 ft 133 kts 58°
2026-04-23 09:47 55.91845 -3.46541 1152 ft 132 kts 59°
2026-04-23 09:47 55.92317 -3.45133 981 ft 132 kts 58°
2026-04-23 09:48 55.92794 -3.43745 818 ft 130 kts 58°
2026-04-23 09:48 55.93262 -3.42359 650 ft 130 kts 59°
2026-04-23 09:48 55.93727 -3.40976 417 ft 130 kts 58°
2026-04-23 09:48 55.94188 -3.39595 220 ft 130 kts 57°
2026-04-23 09:49 55.94656 -3.38281 119 ft 113 kts 59°
2026-04-23 09:49 55.94953 -3.37394 112 ft 53 kts 59°
2026-04-23 09:49 55.95129 -3.36864 117 ft 41 kts 59°
2026-04-23 09:49 55.95224 -3.36586 113 ft 17 kts 59°
2026-04-23 09:50 55.95223 -3.36382 109 ft 13 kts 143°
2026-04-23 09:50 55.95151 -3.36321 112 ft 10 kts 180°
2026-04-23 09:50 55.95093 -3.36389 111 ft 9 kts 211°
2026-04-23 09:50 55.95025 -3.36407 111 ft 10 kts 210°
2026-04-23 09:51 55.94979 -3.36404 111 ft 0 kts 149°
2026-04-23 09:51 55.94965 -3.36384 111 ft 5 kts 144°
2026-04-23 09:51 55.94943 -3.36360 111 ft 0 kts 148°